Latest Coastal Weather Observations for Devonport Airport

IDT60701

Issued at 7:32 am EST Wednesday 3 June 2020 (issued every 10 minutes, with the page automatically refreshed every 10 minutes)

About coastal observations | Map of coastal stations | Coastal observations for TAS | Marine services | Other Formats
Station Details ID: 091126 Name: DEVONPORT AIRPORT Lat: -41.17 Lon: 146.43 Height: 8.0 m
Data from the previous 72 hours. | See also: Recent months at Devonport Airport
Date/Time
EST
Wind Sea
Height
m
Swell Vis
km
Cloud Weather Temp
°C
Press
hPa
Rain since
9am
mm
Dir  Spd
kts
Gust
kts
Height
m
Period
s
Dir
03/07:30am SE 3 4 - - - - 10 Clear - 4.6 1023.3 0.0
03/07:00am S 4 6 - - - - 10 - - 7.3 1022.6 0.0
03/06:30am NE 3 5 - - - - 10 - - 6.0 1021.8 0.0
03/06:00am CALM 0 2 - - - - 10 - - 7.1 1021.2 0.0
03/05:30am E 5 7 - - - - 10 - - 8.5 1020.0 0.0
03/05:00am S 5 9 - - - - 10 - - 9.6 1019.0 0.0
03/04:30am SW 16 29 - - - - 10 - - 10.8 1018.2 0.0
03/04:25am WSW 12 29 - - - - 10 - - 9.8 1018.1 0.0
03/04:24am WSW 11 21 - - - - 10 - - 9.1 1018.1 0.0
03/04:00am NNW 5 7 - - - - 10 - - 6.7 1017.8 0.0
03/03:30am SW 6 7 - - - - 10 - - 5.5 1017.4 0.0
03/03:00am SW 7 9 - - - - 10 - - 5.6 1016.8 0.0
03/02:30am SSW 1 4 - - - - 10 Partly cloudy - 6.1 1016.6 0.0
03/02:00am SE 3 5 - - - - 10 - - 7.0 1015.8 0.0
03/01:30am SSE 5 6 - - - - 10 - - 6.6 1015.4 0.0
03/01:00am SW 8 11 - - - - 10 - - 9.4 1014.8 0.0
03/12:30am WSW 12 17 - - - - 10 Partly cloudy - 9.7 1014.0 0.0
03/12:00am WSW 15 22 - - - - 10 - - 10.1 1013.5 0.0
 
Date/Time
EST
Wind Sea
Height
m
Swell Vis
km
Cloud Weather Temp
°C
Press
hPa
Rain since
9am
mm
Dir  Spd
kts
Gust
kts
Height
m
Period
s
Dir
02/11:30pm WSW 15 20 - - - - 10 Partly cloudy - 10.5 1013.1 0.0
02/11:00pm SW 17 24 - - - - 10 Partly cloudy - 10.9 1012.8 0.0
02/10:30pm SW 11 16 - - - - 10 - - 9.9 1012.2 0.0
02/10:00pm WSW 10 17 - - - - 10 - - 9.1 1011.4 0.0
02/09:30pm W 10 13 - - - - 10 - - 9.6 1011.0 0.0
02/09:00pm W 11 16 - - - - 10 - - 10.6 1010.9 0.0
02/08:30pm W 9 18 - - - - 10 - - 11.1 1010.4 0.0
02/08:00pm WSW 16 23 - - - - 10 - - 11.5 1010.2 0.0
02/07:30pm W 16 20 - - - - 10 - - 11.6 1009.6 0.0
02/07:00pm W 19 24 - - - - 10 - - 12.1 1009.4 0.0
02/06:30pm WNW 19 24 - - - - 10 - - 12.3 1009.3 0.0
02/06:00pm WNW 21 25 - - - - 10 - - 12.7 1008.9 0.0
02/05:30pm WNW 22 27 - - - - 10 Partly cloudy - 12.9 1008.9 0.0
02/05:00pm WNW 23 28 - - - - 10 Partly cloudy - 12.8 1008.8 0.0
02/04:30pm NW 21 27 - - - - 10 Partly cloudy - 13.0 1008.9 0.0
02/04:00pm NW 21 26 - - - - 10 Partly cloudy - 13.4 1009.4 0.0
02/03:30pm NW 21 27 - - - - 10 Partly cloudy - 13.4 1009.6 0.0
02/03:00pm NW 23 30 - - - - 10 Mostly clear - 13.5 1009.1 0.0
02/02:30pm NW 22 27 - - - - 10 Partly cloudy - 13.4 1009.3 0.0
02/02:00pm NW 21 28 - - - - 10 Partly cloudy - 13.9 1009.9 0.0
02/01:30pm WNW 18 23 - - - - 10 Partly cloudy - 13.6 1010.4 0.0
02/01:00pm WNW 20 25 - - - - 10 Partly cloudy - 13.3 1010.9 0.0
02/12:30pm WNW 16 21 - - - - 10 Partly cloudy - 14.1 1011.1 0.0
02/12:00pm WNW 17 21 - - - - 10 Cloudy - 13.5 1011.6 0.0
02/11:30am WNW 18 21 - - - - 10 Partly cloudy - 13.9 1011.8 0.0
02/11:00am WNW 18 21 - - - - 10 Partly cloudy - 12.6 1012.1 0.0
02/10:30am WNW 17 22 - - - - 10 - - 12.7 1012.1 0.0
02/10:00am WNW 16 19 - - - - 10 - - 12.6 1012.3 0.0
02/09:30am WNW 15 20 - - - - 10 - - 12.3 1012.2 0.0
02/09:00am WNW 15 19 - - - - 10 Mostly cloudy - 12.9 1012.2 0.6
02/08:30am W 14 19 - - - - 10 - - 12.1 1011.9 0.6
02/08:00am WSW 8 16 - - - - 10 - - 10.6 1011.6 0.6
02/07:30am WSW 10 17 - - - - 10 - - 9.6 1011.4 0.6
02/07:17am SW 5 9 - - - - 10 Partly cloudy - 9.5 1011.2 0.6
02/07:00am WSW 5 7 - - - - 10 Partly cloudy - 9.5 1011.3 0.6
02/06:55am WSW 6 10 - - - - 10 Partly cloudy - 9.5 1011.3 0.6
02/06:30am W 9 12 - - - - 10 - - 9.7 1011.1 0.6
02/06:00am WNW 13 17 - - - - 10 Partly cloudy - 10.0 1010.9 0.6
02/05:30am WNW 16 21 - - - - 10 Partly cloudy - 10.4 1010.8 0.6
02/05:10am WNW 15 20 - - - - 10 Partly cloudy - 10.1 1010.9 0.6
02/05:00am WNW 14 17 - - - - 10 Partly cloudy - 10.2 1011.0 0.6
02/04:30am WSW 10 15 - - - - 10 Partly cloudy - 8.6 1011.1 0.6
02/04:00am WSW 9 12 - - - - 10 - - 7.9 1011.3 0.6
02/03:30am WSW 7 10 - - - - 10 - - 6.8 1011.2 0.6
02/03:00am WSW 6 9 - - - - 10 - - 7.0 1011.3 0.6
02/02:30am WSW 6 7 - - - - 10 - - 6.6 1011.5 0.6
02/02:00am WSW 6 9 - - - - 10 - - 6.6 1011.4 0.6
02/01:30am WSW 7 10 - - - - 10 - - 7.7 1011.4 0.6
02/01:00am SSW 8 11 - - - - 10 - - 8.8 1011.0 0.6
02/12:30am WSW 14 18 - - - - 10 - - 8.5 1010.8 0.6
02/12:00am SW 8 11 - - - - 10 - - 8.5 1010.9 0.6
 
Date/Time
EST
Wind Sea
Height
m
Swell Vis
km
Cloud Weather Temp
°C
Press
hPa
Rain since
9am
mm
Dir  Spd
kts
Gust
kts
Height
m
Period
s
Dir
01/11:30pm SW 7 10 - - - - 10 - - 7.7 1010.6 0.6
01/11:00pm SW 6 9 - - - - 10 - - 8.3 1010.2 0.6
01/10:30pm W 8 11 - - - - 10 - - 8.3 1009.9 0.6
01/10:00pm SSW 9 15 - - - - 10 - - 9.3 1009.6 0.6
01/09:30pm S 7 11 - - - - 10 - - 8.6 1009.1 0.6
01/09:00pm S 6 7 - - - - 10 - - 8.3 1008.8 0.6
01/08:30pm S 4 6 - - - - 10 - - 8.1 1008.7 0.6
01/08:00pm SSW 4 5 - - - - 10 - - 7.8 1008.0 0.6
01/07:30pm SSW 4 5 - - - - 10 - - 8.2 1007.7 0.6
01/07:00pm S 3 4 - - - - 10 - - 8.4 1007.1 0.6
01/06:30pm W 3 3 - - - - - Partly cloudy - 9.4 1006.6 0.6
01/06:00pm WSW 3 4 - - - - - Mostly cloudy - 10.8 1006.3 0.6
01/05:30pm SW 4 5 - - - - - Partly cloudy - 11.1 1006.0 0.6
01/05:00pm WNW 8 9 - - - - - Partly cloudy - 12.0 1005.3 0.6
01/04:30pm WNW 8 9 - - - - - Partly cloudy - 12.6 1005.0 0.6
01/04:00pm NW 7 9 - - - - - Partly cloudy - 13.1 1004.6 0.6
01/03:30pm WNW 7 9 - - - - - Partly cloudy - 13.4 1004.6 0.6
01/03:00pm NW 9 11 - - - - - Cloudy - 13.2 1004.4 0.4
01/02:30pm NW 11 13 - - - - - Partly cloudy - 13.0 1004.0 0.4
01/02:00pm NW 5 7 - - - - - Partly cloudy - 12.3 1003.8 0.4
01/01:30pm NW 6 8 - - - - - Partly cloudy - 12.8 1003.6 0.4
01/01:00pm NNW 11 14 - - - - - Partly cloudy - 12.2 1003.5 0.4
01/12:30pm NNW 13 17 - - - - - Partly cloudy - 13.2 1003.2 0.2
01/12:00pm NNW 12 15 - - - - - - Rain 12.6 1003.2 0.2
01/11:30am N 7 9 - - - - - Partly cloudy - 13.5 1003.1 0.0
01/11:00am NW 13 17 - - - - - Partly cloudy - 12.1 1003.3 0.0
01/10:30am NNW 10 13 - - - - - Partly cloudy - 13.3 1003.2 0.0
01/10:05am NW 10 13 - - - - - Partly cloudy - 12.9 1002.9 0.0
01/10:00am NW 11 16 - - - - - Partly cloudy - 12.7 1002.9 0.0
01/09:50am NNW 12 19 - - - - - Partly cloudy - 12.9 1002.9 0.0
01/09:30am NNW 13 17 - - - - - Partly cloudy - 12.3 1002.7 0.0
01/09:00am N 15 19 - - - - - Cloudy - 12.8 1002.5 5.0
01/08:30am N 12 16 - - - - - Partly cloudy - 12.2 1002.4 5.0
01/08:19am NNW 12 17 - - - - - Partly cloudy - 12.1 1002.2 5.0
01/08:00am NW 12 17 - - - - - Partly cloudy - 11.8 1002.3 5.0
01/07:48am NW 16 22 - - - - - Partly cloudy - 11.8 1002.1 2.4
01/07:30am N 14 17 - - - - - Partly cloudy - 12.6 1001.9 2.4
01/07:00am NNW 14 18 - - - - - Partly cloudy - 12.8 1001.7 2.4
01/06:30am NW 14 20 - - - - - Partly cloudy - 11.7 1001.7 2.4
01/06:00am NNW 13 16 - - - - - Mostly cloudy - 12.9 1001.5 2.4
01/05:30am NNW 17 21 - - - - - Partly cloudy - 12.9 1001.5 2.4
01/05:00am NNW 15 19 - - - - - Partly cloudy - 12.5 1001.6 2.4
01/04:30am NNW 17 21 - - - - - Partly cloudy - 12.4 1001.7 2.4
01/04:00am NNW 17 19 - - - - - Partly cloudy - 12.4 1001.7 2.4
01/03:30am NNW 17 21 - - - - - Partly cloudy - 12.5 1002.0 2.4
01/03:00am NW 11 17 - - - - - Cloudy Recent precip. 12.0 1002.5 2.4
01/02:30am NW 16 21 - - - - - Partly cloudy - 11.9 1002.8 2.4
01/02:00am NNW 17 20 - - - - - Partly cloudy - 12.6 1002.9 2.0
01/01:41am N 11 21 - - - - - Partly cloudy - 12.5 1002.9 2.0
01/01:30am N 7 9 - - - - - Partly cloudy - 11.7 1003.2 2.0
01/01:00am N 11 15 - - - - - Partly cloudy - 11.3 1003.6 2.0
01/12:30am NNW 14 19 - - - - - Partly cloudy - 12.6 1003.9 2.0
01/12:00am NNW 12 14 - - - - - Cloudy - 12.1 1004.4 2.0
 
Date/Time
EST
Wind Sea
Height
m
Swell Vis
km
Cloud Weather Temp
°C
Press
hPa
Rain since
9am
mm
Dir  Spd
kts
Gust
kts
Height
m
Period
s
Dir
31/11:30pm NNW 15 18 - - - - - Partly cloudy - 12.4 1004.8 2.0
31/11:00pm NNW 14 19 - - - - - Partly cloudy - 12.4 1005.1 2.0
31/10:30pm WNW 8 15 - - - - - Partly cloudy - 11.3 1005.6 2.0
31/10:00pm SW 5 7 - - - - - Partly cloudy - 10.0 1005.9 2.0
31/09:30pm S 4 6 - - - - - Partly cloudy - 9.9 1006.2 2.0
31/09:00pm SSW 5 7 - - - - - Cloudy - 10.1 1006.6 2.0
31/08:30pm NW 13 15 - - - - - Partly cloudy - 11.9 1006.9 2.0
31/08:00pm NW 13 16 - - - - - Partly cloudy - 11.7 1007.0 2.0
31/07:30pm WNW 8 12 - - - - - Partly cloudy - 10.5 1007.2 2.0
31/07:00pm NW 19 28 - - - - - Partly cloudy - 11.2 1007.3 2.0
31/06:57pm NW 17 28 - - - - - Partly cloudy - 11.8 1007.2 2.0
31/06:30pm NW 14 19 - - - - - Partly cloudy - 11.9 1007.2 2.0
31/06:00pm W 9 12 - - - - - Cloudy - 10.8 1007.3 2.0
31/05:30pm NW 17 22 - - - - - Partly cloudy - 12.1 1007.2 2.0
31/05:00pm NW 18 22 - - - - - Partly cloudy - 12.4 1007.0 2.0
31/04:30pm NW 18 23 - - - - - Partly cloudy - 12.7 1007.0 2.0
31/04:00pm NW 17 23 - - - - - Partly cloudy - 12.6 1007.0 2.0
31/03:30pm NW 14 18 - - - - - Partly cloudy - 12.5 1007.2 2.0
31/03:00pm NW 12 17 - - - - - Cloudy Recent precip. 12.4 1007.1 2.0
31/02:30pm WNW 12 15 - - - - - Partly cloudy - 12.0 1007.2 2.0
31/02:00pm NW 18 23 - - - - - Partly cloudy - 12.9 1007.2 1.6
31/01:30pm NW 16 19 - - - - - Partly cloudy - 13.4 1007.4 1.6
31/01:00pm NW 16 21 - - - - - Partly cloudy - 13.9 1007.6 1.6
31/12:30pm NW 16 20 - - - - - Partly cloudy - 13.4 1008.0 1.6
31/12:00pm WNW 9 14 - - - - - Cloudy - 12.8 1008.5 1.6
31/11:30am WNW 6 8 - - - - - Partly cloudy - 12.7 1008.9 1.6
31/11:00am W 10 13 - - - - - Partly cloudy - 11.8 1009.4 1.6
31/10:30am W 6 8 - - - - - Partly cloudy - 12.2 1009.5 0.0
31/10:00am WNW 10 11 - - - - - Partly cloudy - 12.1 1009.6 0.0
31/09:30am WNW 12 14 - - - - - - - 12.2 1009.6 0.0
31/09:00am WNW 11 13 - - - - - - - 12.0 1009.3 3.4
31/08:30am WNW 10 13 - - - - - - - 11.6 1009.1 3.4
31/08:00am WNW 12 14 - - - - - - - 11.2 1008.8 3.4

Other formats

Comma delimited format used in spreadsheet applications
http://www.bom.gov.au/fwo/IDT60701/IDT60701.95960.axf

JavaScript Object Notation format (JSON) in row-major order
http://www.bom.gov.au/fwo/IDT60701/IDT60701.95960.json

Data quality

Most of these data are generated automatically and are frequently updated. Quality checks on data are not normally performed. It is possible for incorrect values to appear. Refer to information at About Latest Weather Observations and please check the disclaimer before using these data.